Time;durP1;ratioP1;P1;durP2;ratioP2;P2;SDS_P1;SDS_P2;PMS_P1;PMS_P2;Temp;Humidity;BMP_temperature;BMP_pressure;BME280_temperature;BME280_humidity;BME280_pressure;Samples;Min_cycle;Max_cycle;Signal;HPM_P1;HPM_P2
2022/07/25 00:00:59;;;;;;;9.10;6.88;;;;;;;;;;5117873;27;20052;-73
2022/07/25 00:03:25;;;;;;;10.40;7.00;;;;;;;;;;5130741;27;20046;-73
2022/07/25 00:05:51;;;;;;;8.65;6.82;;;;;;;;;;5134959;27;20058;-73
2022/07/25 00:08:17;;;;;;;10.13;7.20;;;;;;;;;;5135562;27;20043;-73
2022/07/25 00:10:43;;;;;;;9.88;7.10;;;;;;;;;;5134621;27;20130;-74
2022/07/25 00:13:09;;;;;;;11.00;7.05;;;;;;;;;;5134310;27;20078;-73
2022/07/25 00:15:36;;;;;;;10.32;7.78;;;;;;;;;;5128895;27;20050;-73
2022/07/25 00:18:02;;;;;;;12.82;7.78;;;;;;;;;;5117978;27;20039;-73
2022/07/25 00:20:28;;;;;;;10.18;8.75;;;;;;;;;;5124593;27;20077;-73
2022/07/25 00:22:54;;;;;;;11.93;8.60;;;;;;;;;;5127862;27;20116;-74
2022/07/25 00:25:20;;;;;;;11.88;8.65;;;;;;;;;;5131686;27;20035;-73
2022/07/25 00:27:46;;;;;;;11.70;9.20;;;;;;;;;;5123998;27;20068;-73
2022/07/25 00:30:12;;;;;;;11.40;9.20;;;;;;;;;;5130256;27;20428;-74
2022/07/25 00:32:38;;;;;;;12.35;9.55;;;;;;;;;;5127033;27;20050;-73
2022/07/25 00:35:05;;;;;;;12.63;9.30;;;;;;;;;;5121106;27;20143;-73
2022/07/25 00:37:31;;;;;;;12.15;10.13;;;;;;;;;;5120204;27;20073;-74
2022/07/25 00:39:57;;;;;;;13.18;10.38;;;;;;;;;;5120761;27;20050;-73
2022/07/25 00:42:23;;;;;;;11.63;10.43;;;;;;;;;;5122359;27;20762;-73
2022/07/25 00:44:50;;;;;;;14.10;10.38;;;;;;;;;;5121627;27;20739;-73
2022/07/25 00:47:17;;;;;;;12.32;10.25;;;;;;;;;;5119328;27;20047;-73
2022/07/25 00:49:43;;;;;;;11.95;10.60;;;;;;;;;;5122604;27;20466;-73
2022/07/25 00:52:09;;;;;;;12.63;10.73;;;;;;;;;;5119815;27;20043;-72
2022/07/25 00:54:35;;;;;;;13.57;10.93;;;;;;;;;;5103817;27;20516;-72
2022/07/25 00:57:01;;;;;;;12.93;11.25;;;;;;;;;;5121865;27;20136;-74
2022/07/25 00:59:27;;;;;;;14.32;12.23;;;;;;;;;;5123119;27;20043;-74
2022/07/25 01:01:54;;;;;;;12.27;10.98;;;;;;;;;;5123539;27;20051;-73
2022/07/25 01:04:20;;;;;;;13.18;11.48;;;;;;;;;;5118875;27;20507;-72
2022/07/25 01:06:46;;;;;;;12.40;11.10;;;;;;;;;;5119733;27;20064;-73
2022/07/25 01:09:12;;;;;;;13.88;12.48;;;;;;;;;;5134133;27;20083;-73
2022/07/25 01:11:39;;;;;;;15.63;13.45;;;;;;;;;;5131219;27;20051;-74
2022/07/25 01:14:05;;;;;;;15.48;13.60;;;;;;;;;;5126868;27;20080;-73
2022/07/25 01:16:31;;;;;;;14.45;12.60;;;;;;;;;;5120724;27;20043;-73
2022/07/25 01:18:57;;;;;;;15.77;13.43;;;;;;;;;;5130351;27;20031;-73
2022/07/25 01:21:24;;;;;;;15.32;13.43;;;;;;;;;;5108172;27;20047;-73
2022/07/25 01:23:50;;;;;;;16.60;13.43;;;;;;;;;;5101467;27;20044;-74
2022/07/25 01:26:16;;;;;;;15.43;13.18;;;;;;;;;;5129953;27;20036;-73
2022/07/25 01:28:42;;;;;;;15.85;14.15;;;;;;;;;;5130402;27;20032;-73
2022/07/25 01:31:08;;;;;;;14.65;13.15;;;;;;;;;;5132899;27;20042;-73
2022/07/25 01:33:34;;;;;;;15.70;14.10;;;;;;;;;;5126762;27;20047;-73
2022/07/25 01:36:00;;;;;;;16.13;13.57;;;;;;;;;;5130860;27;20039;-72
2022/07/25 01:38:26;;;;;;;15.60;13.75;;;;;;;;;;5133188;27;20082;-73
2022/07/25 01:40:52;;;;;;;16.90;14.50;;;;;;;;;;5123601;27;20761;-73
2022/07/25 01:43:19;;;;;;;15.35;13.48;;;;;;;;;;5130703;27;20047;-73
2022/07/25 01:45:45;;;;;;;18.52;14.82;;;;;;;;;;5125852;27;20036;-72
2022/07/25 01:48:11;;;;;;;15.73;14.05;;;;;;;;;;5128334;27;20039;-73
2022/07/25 01:50:37;;;;;;;17.48;15.68;;;;;;;;;;5133548;27;20035;-74
2022/07/25 01:53:04;;;;;;;20.83;15.00;;;;;;;;;;5130098;27;20043;-74
2022/07/25 01:55:30;;;;;;;15.90;14.20;;;;;;;;;;5104015;27;20046;-74
2022/07/25 01:57:56;;;;;;;16.75;15.00;;;;;;;;;;5132725;27;20039;-73
2022/07/25 02:00:22;;;;;;;17.10;15.40;;;;;;;;;;5128657;27;20488;-74
2022/07/25 02:02:48;;;;;;;17.38;15.60;;;;;;;;;;5102027;27;20549;-73
2022/07/25 02:05:15;;;;;;;17.25;15.43;;;;;;;;;;5102921;28;20040;-73
2022/07/25 02:07:41;;;;;;;18.15;15.73;;;;;;;;;;5130026;27;20067;-72
2022/07/25 02:10:07;;;;;;;20.23;16.48;;;;;;;;;;5129843;27;20039;-74
2022/07/25 02:12:34;;;;;;;18.35;16.08;;;;;;;;;;5134361;27;20041;-73
2022/07/25 02:15:00;;;;;;;20.00;16.15;;;;;;;;;;5127158;27;20035;-73
2022/07/25 02:17:26;;;;;;;18.00;16.08;;;;;;;;;;5134229;27;20054;-74
2022/07/25 02:19:52;;;;;;;19.70;15.63;;;;;;;;;;5133354;27;20031;-73
2022/07/25 02:22:18;;;;;;;17.45;15.68;;;;;;;;;;5106795;28;20039;-73
2022/07/25 02:24:44;;;;;;;17.10;15.18;;;;;;;;;;5130289;28;20039;-75
2022/07/25 02:27:10;;;;;;;17.13;15.32;;;;;;;;;;5109223;28;20480;-72
2022/07/25 02:29:36;;;;;;;17.33;15.60;;;;;;;;;;5111345;28;20044;-73
2022/07/25 02:32:02;;;;;;;17.05;15.00;;;;;;;;;;5131217;28;20039;-73
2022/07/25 02:34:28;;;;;;;18.27;15.13;;;;;;;;;;5133702;28;20039;-73
2022/07/25 02:36:54;;;;;;;18.73;16.42;;;;;;;;;;5128854;28;20043;-73
2022/07/25 02:39:21;;;;;;;18.23;15.77;;;;;;;;;;5112837;28;20074;-74
2022/07/25 02:41:47;;;;;;;18.63;16.10;;;;;;;;;;5132302;28;20051;-73
2022/07/25 02:44:13;;;;;;;18.38;15.73;;;;;;;;;;5116778;28;20040;-73
2022/07/25 02:46:39;;;;;;;17.90;15.93;;;;;;;;;;5126685;28;20040;-72
2022/07/25 02:49:05;;;;;;;18.58;16.75;;;;;;;;;;5133307;28;20055;-73
2022/07/25 02:51:31;;;;;;;18.35;16.48;;;;;;;;;;5132098;28;20058;-74
2022/07/25 02:53:57;;;;;;;19.15;16.65;;;;;;;;;;5131944;28;20458;-73
2022/07/25 02:56:23;;;;;;;17.98;16.02;;;;;;;;;;5124843;27;20074;-72
2022/07/25 02:58:49;;;;;;;18.55;16.75;;;;;;;;;;5132156;27;20043;-73
2022/07/25 03:01:15;;;;;;;19.17;17.30;;;;;;;;;;5132043;27;20072;-72
2022/07/25 03:03:41;;;;;;;19.15;16.88;;;;;;;;;;5123978;27;20044;-74
2022/07/25 03:06:07;;;;;;;19.83;17.70;;;;;;;;;;5133312;27;20042;-74
2022/07/25 03:08:33;;;;;;;18.75;16.98;;;;;;;;;;5137523;27;20121;-73
2022/07/25 03:10:59;;;;;;;19.23;17.02;;;;;;;;;;5135899;27;20035;-73
2022/07/25 03:13:25;;;;;;;18.23;16.27;;;;;;;;;;5137547;27;20055;-72
2022/07/25 03:15:51;;;;;;;17.83;16.08;;;;;;;;;;5125985;27;20040;-73
2022/07/25 03:18:17;;;;;;;19.95;17.90;;;;;;;;;;5124908;27;20390;-73
2022/07/25 03:20:43;;;;;;;19.05;16.73;;;;;;;;;;5125322;27;20447;-73
2022/07/25 03:23:09;;;;;;;19.55;17.65;;;;;;;;;;5113471;27;20043;-73
2022/07/25 03:25:35;;;;;;;19.15;17.20;;;;;;;;;;5127752;27;20046;-73
2022/07/25 03:28:01;;;;;;;19.05;17.15;;;;;;;;;;5109953;27;20050;-72
2022/07/25 03:30:27;;;;;;;18.42;16.52;;;;;;;;;;5128844;27;20406;-74
2022/07/25 03:32:53;;;;;;;18.38;16.60;;;;;;;;;;5135188;27;20457;-72
2022/07/25 03:35:20;;;;;;;18.92;16.95;;;;;;;;;;5135752;27;20063;-74
2022/07/25 03:37:46;;;;;;;19.63;17.27;;;;;;;;;;5136199;27;20470;-72
2022/07/25 03:40:13;;;;;;;19.75;17.85;;;;;;;;;;5132978;27;20042;-73
2022/07/25 03:42:39;;;;;;;19.23;17.13;;;;;;;;;;5135959;27;20051;-72
2022/07/25 03:45:05;;;;;;;19.20;17.27;;;;;;;;;;5130555;27;20039;-73
2022/07/25 03:47:31;;;;;;;18.50;16.48;;;;;;;;;;5124270;27;20058;-73
2022/07/25 03:49:57;;;;;;;21.05;16.67;;;;;;;;;;5130944;27;20074;-73
2022/07/25 03:52:23;;;;;;;18.73;16.75;;;;;;;;;;5122600;27;20390;-73
2022/07/25 03:54:50;;;;;;;18.60;16.15;;;;;;;;;;5119435;27;20043;-74
2022/07/25 03:57:16;;;;;;;18.48;16.58;;;;;;;;;;5119084;27;20040;-72
2022/07/25 03:59:42;;;;;;;20.33;16.75;;;;;;;;;;5132086;27;20045;-73
2022/07/25 04:02:08;;;;;;;19.05;17.08;;;;;;;;;;5127270;27;20392;-73
2022/07/25 04:04:34;;;;;;;17.63;15.82;;;;;;;;;;5116953;27;20092;-73
2022/07/25 04:07:00;;;;;;;18.15;16.05;;;;;;;;;;5134972;27;20120;-73
2022/07/25 04:09:26;;;;;;;18.52;16.58;;;;;;;;;;5127177;27;20050;-74
2022/07/25 04:11:52;;;;;;;18.02;15.63;;;;;;;;;;5133848;27;20095;-72
2022/07/25 04:14:18;;;;;;;20.80;16.23;;;;;;;;;;5123911;27;20048;-74
2022/07/25 04:16:44;;;;;;;18.40;16.10;;;;;;;;;;5120750;27;20134;-73
2022/07/25 04:19:10;;;;;;;19.70;16.23;;;;;;;;;;5136024;27;20051;-74
2022/07/25 04:21:36;;;;;;;17.83;15.65;;;;;;;;;;5118783;27;20043;-74
2022/07/25 04:24:02;;;;;;;21.77;15.65;;;;;;;;;;5126093;27;20488;-73
2022/07/25 04:26:28;;;;;;;18.65;15.07;;;;;;;;;;5135113;27;20095;-73
2022/07/25 04:28:56;;;;;;;17.33;15.20;;;;;;;;;;5131182;27;20051;-73
2022/07/25 04:31:22;;;;;;;21.17;15.15;;;;;;;;;;5130454;27;20107;-74
2022/07/25 04:33:48;;;;;;;17.02;14.95;;;;;;;;;;5123090;27;20035;-73
2022/07/25 04:36:14;;;;;;;16.38;14.63;;;;;;;;;;5116797;27;20488;-73
2022/07/25 04:38:40;;;;;;;15.98;14.18;;;;;;;;;;5124362;27;20408;-73
2022/07/25 04:41:06;;;;;;;17.35;14.93;;;;;;;;;;5134525;27;20533;-73
2022/07/25 04:43:32;;;;;;;15.55;13.95;;;;;;;;;;5133201;27;20053;-72
2022/07/25 04:46:00;;;;;;;15.88;14.32;;;;;;;;;;5121435;27;20039;-72
2022/07/25 04:48:26;;;;;;;15.30;13.60;;;;;;;;;;5108006;28;20055;-72
2022/07/25 04:50:52;;;;;;;15.15;13.55;;;;;;;;;;5126837;27;20054;-74
2022/07/25 04:53:18;;;;;;;15.10;13.57;;;;;;;;;;5131056;27;20054;-73
2022/07/25 04:55:44;;;;;;;16.33;13.27;;;;;;;;;;5124887;27;20456;-73
2022/07/25 04:58:10;;;;;;;15.18;13.45;;;;;;;;;;5112065;27;20047;-73
2022/07/25 05:00:36;;;;;;;15.57;13.98;;;;;;;;;;5126733;27;20163;-73
2022/07/25 05:03:02;;;;;;;15.48;13.25;;;;;;;;;;5121462;27;20508;-72
2022/07/25 05:05:28;;;;;;;15.20;13.60;;;;;;;;;;5132889;27;20598;-73
2022/07/25 05:07:58;;;;;;;16.08;13.57;;;;;;;;;;5134550;27;20507;-74
2022/07/25 05:10:28;;;;;;;16.10;13.40;;;;;;;;;;5133805;27;20126;-72
2022/07/25 05:12:54;;;;;;;16.88;13.23;;;;;;;;;;5134120;27;20051;-73
2022/07/25 05:15:20;;;;;;;15.52;13.52;;;;;;;;;;5129263;27;20183;-73
2022/07/25 05:17:47;;;;;;;14.88;12.88;;;;;;;;;;5132169;27;20054;-73
2022/07/25 05:20:13;;;;;;;15.48;13.68;;;;;;;;;;5133337;27;20043;-73
2022/07/25 05:22:39;;;;;;;16.05;13.77;;;;;;;;;;5134102;27;20143;-72
2022/07/25 05:25:06;;;;;;;15.63;13.15;;;;;;;;;;5110688;27;20054;-72
2022/07/25 05:27:32;;;;;;;14.43;12.98;;;;;;;;;;5123127;27;20047;-72
2022/07/25 05:29:58;;;;;;;14.35;12.85;;;;;;;;;;5123473;27;20046;-72
2022/07/25 05:32:24;;;;;;;15.75;14.13;;;;;;;;;;5133041;27;20047;-73
2022/07/25 05:34:51;;;;;;;15.10;13.60;;;;;;;;;;5134578;27;20062;-73
2022/07/25 05:37:17;;;;;;;14.55;12.90;;;;;;;;;;5124328;27;20058;-73
2022/07/25 05:39:43;;;;;;;13.93;12.18;;;;;;;;;;5130189;27;20389;-73
2022/07/25 05:42:09;;;;;;;14.10;12.65;;;;;;;;;;5120515;27;20043;-73
2022/07/25 05:44:35;;;;;;;16.27;12.73;;;;;;;;;;5121722;27;20085;-73
2022/07/25 05:47:01;;;;;;;13.43;12.02;;;;;;;;;;5119626;27;20083;-73
2022/07/25 05:49:27;;;;;;;15.77;11.52;;;;;;;;;;5101268;28;20075;-72
2022/07/25 05:51:53;;;;;;;14.00;11.30;;;;;;;;;;5114219;27;20043;-73
2022/07/25 05:54:19;;;;;;;13.55;10.88;;;;;;;;;;5118807;27;20485;-72
2022/07/25 05:56:45;;;;;;;13.40;10.35;;;;;;;;;;5108089;27;20093;-72
2022/07/25 05:59:11;;;;;;;13.30;10.50;;;;;;;;;;5130673;27;20122;-73
2022/07/25 06:01:37;;;;;;;15.10;10.23;;;;;;;;;;5129062;27;20043;-72
2022/07/25 06:04:03;;;;;;;16.20;10.50;;;;;;;;;;5108945;27;20031;-73
2022/07/25 06:06:31;;;;;;;15.32;10.38;;;;;;;;;;5124801;27;20553;-75
2022/07/25 06:08:57;;;;;;;12.02;9.77;;;;;;;;;;5121234;27;20035;-74
2022/07/25 06:11:26;;;;;;;14.18;10.50;;;;;;;;;;5108792;28;20096;-75
2022/07/25 06:13:52;;;;;;;12.25;10.07;;;;;;;;;;5127941;27;20488;-74
2022/07/25 06:16:18;;;;;;;11.02;9.43;;;;;;;;;;5134032;27;20104;-74
2022/07/25 06:18:44;;;;;;;11.40;10.20;;;;;;;;;;5097216;28;20044;-74
2022/07/25 06:21:10;;;;;;;11.00;9.38;;;;;;;;;;5131930;27;20088;-75
2022/07/25 06:23:36;;;;;;;12.02;9.57;;;;;;;;;;5134046;27;20043;-71
2022/07/25 06:26:02;;;;;;;10.25;8.90;;;;;;;;;;5110352;28;20043;-71
2022/07/25 06:28:28;;;;;;;11.32;9.10;;;;;;;;;;5133538;28;20043;-71
2022/07/25 06:30:54;;;;;;;11.20;9.45;;;;;;;;;;5134526;27;20054;-72
2022/07/25 06:33:20;;;;;;;10.77;9.38;;;;;;;;;;5137710;27;20129;-71
2022/07/25 06:35:46;;;;;;;13.20;9.90;;;;;;;;;;5117492;27;20119;-71
2022/07/25 06:38:12;;;;;;;11.07;8.73;;;;;;;;;;5137335;27;20472;-71
2022/07/25 06:40:38;;;;;;;11.70;8.43;;;;;;;;;;5137043;27;20100;-71
2022/07/25 06:43:04;;;;;;;11.23;8.48;;;;;;;;;;5137966;27;20054;-71
2022/07/25 06:45:30;;;;;;;11.00;8.70;;;;;;;;;;5117360;27;20043;-71
2022/07/25 06:47:56;;;;;;;11.57;7.85;;;;;;;;;;5128522;27;20127;-71
2022/07/25 06:50:22;;;;;;;13.20;8.27;;;;;;;;;;5123233;27;20058;-72
2022/07/25 06:52:49;;;;;;;12.05;8.15;;;;;;;;;;5137082;27;20065;-71
2022/07/25 06:55:15;;;;;;;10.10;8.00;;;;;;;;;;5132130;27;20069;-71
2022/07/25 06:57:42;;;;;;;10.75;8.05;;;;;;;;;;5125255;27;20051;-71
2022/07/25 07:00:09;;;;;;;12.98;7.78;;;;;;;;;;5117120;27;20048;-70
2022/07/25 07:02:46;;;;;;;9.25;7.32;;;;;;;;;;5133519;27;21215;-71
2022/07/25 07:05:12;;;;;;;11.40;7.95;;;;;;;;;;5136632;27;20500;-72
2022/07/25 07:07:38;;;;;;;9.52;7.45;;;;;;;;;;5132650;27;20612;-72
2022/07/25 07:10:04;;;;;;;10.75;7.90;;;;;;;;;;5129251;27;20516;-73
2022/07/25 07:12:30;;;;;;;10.95;7.18;;;;;;;;;;5125599;27;20054;-72
2022/07/25 07:14:56;;;;;;;10.05;7.80;;;;;;;;;;5124766;27;20039;-72
2022/07/25 07:17:22;;;;;;;10.68;7.78;;;;;;;;;;5128819;27;20035;-71
2022/07/25 07:19:48;;;;;;;15.40;8.18;;;;;;;;;;5128076;27;20500;-71
2022/07/25 07:22:14;;;;;;;11.25;8.10;;;;;;;;;;5109847;27;20046;-72
2022/07/25 07:24:40;;;;;;;12.68;7.63;;;;;;;;;;5132697;27;20097;-73
2022/07/25 07:27:07;;;;;;;10.90;7.50;;;;;;;;;;5131160;27;20050;-71
2022/07/25 07:29:33;;;;;;;10.40;8.05;;;;;;;;;;5135581;27;20046;-71
2022/07/25 07:32:00;;;;;;;9.82;8.15;;;;;;;;;;5136510;27;20438;-72
2022/07/25 07:34:26;;;;;;;12.02;8.57;;;;;;;;;;5132439;27;20046;-70
2022/07/25 07:36:52;;;;;;;10.65;8.45;;;;;;;;;;5121614;27;20039;-71
2022/07/25 07:39:18;;;;;;;12.10;9.35;;;;;;;;;;5133787;27;20043;-71
2022/07/25 07:41:44;;;;;;;10.70;8.95;;;;;;;;;;5132168;27;20039;-71
2022/07/25 07:44:10;;;;;;;12.18;9.23;;;;;;;;;;5130158;27;20392;-72
2022/07/25 07:46:36;;;;;;;11.68;9.50;;;;;;;;;;5122152;27;20066;-72
2022/07/25 07:49:02;;;;;;;13.82;9.48;;;;;;;;;;5116039;28;20052;-72
2022/07/25 07:51:28;;;;;;;11.30;9.00;;;;;;;;;;5128970;27;20055;-73
2022/07/25 07:56:40;;;;;;;11.45;9.05;;;;;;;;;;5135546;27;20051;-73
2022/07/25 07:59:06;;;;;;;11.05;9.10;;;;;;;;;;5136413;27;20047;-72
2022/07/25 08:01:33;;;;;;;12.20;9.20;;;;;;;;;;5128041;27;20512;-72
2022/07/25 08:03:59;;;;;;;15.27;9.48;;;;;;;;;;5131072;27;20039;-71
2022/07/25 08:06:26;;;;;;;11.05;9.57;;;;;;;;;;5105578;27;20058;-72
2022/07/25 08:08:52;;;;;;;12.68;9.10;;;;;;;;;;5131385;27;20084;-71
2022/07/25 08:11:18;;;;;;;12.98;8.93;;;;;;;;;;5129914;27;20493;-72
2022/07/25 08:13:44;;;;;;;11.40;9.10;;;;;;;;;;5111505;28;20040;-71
2022/07/25 08:16:12;;;;;;;12.48;10.43;;;;;;;;;;5119410;27;20039;-71
2022/07/25 08:18:38;;;;;;;13.07;9.88;;;;;;;;;;5133692;27;20042;-72
2022/07/25 08:21:05;;;;;;;15.93;10.30;;;;;;;;;;5133843;27;20485;-72
2022/07/25 08:23:34;;;;;;;11.10;9.55;;;;;;;;;;5135919;27;20551;-71
2022/07/25 08:26:01;;;;;;;15.95;9.32;;;;;;;;;;5133763;27;20100;-71
2022/07/25 08:28:27;;;;;;;15.13;9.75;;;;;;;;;;5135598;27;20047;-71
2022/07/25 08:30:53;;;;;;;17.15;9.88;;;;;;;;;;5134422;27;20154;-71
2022/07/25 08:33:19;;;;;;;12.48;9.63;;;;;;;;;;5117561;27;20046;-71
2022/07/25 08:35:53;;;;;;;13.30;9.90;;;;;;;;;;5126400;27;20403;-71
2022/07/25 08:38:23;;;;;;;14.23;10.05;;;;;;;;;;5135042;27;20049;-71
2022/07/25 08:40:50;;;;;;;11.18;9.55;;;;;;;;;;5134184;27;20066;-71
2022/07/25 08:43:16;;;;;;;14.43;11.50;;;;;;;;;;5130393;27;20447;-71
2022/07/25 08:45:49;;;;;;;13.20;11.18;;;;;;;;;;5125219;27;20131;-71
2022/07/25 08:48:20;;;;;;;15.65;10.52;;;;;;;;;;5105916;27;20043;-71
2022/07/25 08:50:47;;;;;;;12.57;10.68;;;;;;;;;;5134907;27;20417;-71
2022/07/25 08:53:14;;;;;;;14.35;10.35;;;;;;;;;;5129763;27;20050;-72
2022/07/25 08:55:42;;;;;;;14.30;11.15;;;;;;;;;;5120656;27;20047;-72
2022/07/25 08:58:10;;;;;;;13.82;10.05;;;;;;;;;;5132453;27;20043;-72
2022/07/25 09:00:36;;;;;;;11.88;10.15;;;;;;;;;;5107501;28;20132;-72
2022/07/25 09:03:05;;;;;;;12.32;9.88;;;;;;;;;;5112902;27;20484;-71
2022/07/25 09:05:32;;;;;;;13.15;9.45;;;;;;;;;;5128044;27;20064;-72
2022/07/25 09:08:05;;;;;;;11.02;8.30;;;;;;;;;;5134326;27;20043;-72
2022/07/25 09:10:31;;;;;;;11.75;7.38;;;;;;;;;;5116750;27;20054;-71
2022/07/25 09:13:02;;;;;;;10.02;7.50;;;;;;;;;;5130106;27;20071;-71
2022/07/25 09:15:29;;;;;;;8.90;6.40;;;;;;;;;;5131257;27;20046;-71
2022/07/25 09:17:57;;;;;;;10.32;7.35;;;;;;;;;;5120940;27;20067;-70
2022/07/25 09:20:23;;;;;;;11.25;6.60;;;;;;;;;;5133110;27;20523;-71
2022/07/25 09:22:49;;;;;;;9.27;6.43;;;;;;;;;;5112542;27;20552;-71
2022/07/25 09:25:27;;;;;;;11.60;6.47;;;;;;;;;;5133975;27;20122;-72
2022/07/25 09:27:53;;;;;;;9.82;6.47;;;;;;;;;;5128586;27;20540;-71
2022/07/25 09:30:19;;;;;;;9.35;5.82;;;;;;;;;;5132096;27;20496;-71
2022/07/25 09:32:45;;;;;;;11.13;6.03;;;;;;;;;;5118842;27;20493;-71
2022/07/25 09:35:11;;;;;;;10.23;6.32;;;;;;;;;;5132103;27;20054;-71
2022/07/25 09:37:37;;;;;;;9.98;5.82;;;;;;;;;;5133752;27;20057;-71
2022/07/25 09:40:11;;;;;;;11.57;6.18;;;;;;;;;;5133885;27;20031;-71
2022/07/25 09:42:37;;;;;;;11.57;5.80;;;;;;;;;;5134225;27;20118;-70
2022/07/25 09:45:08;;;;;;;9.25;5.53;;;;;;;;;;5134719;27;20047;-71
2022/07/25 09:47:35;;;;;;;9.82;5.70;;;;;;;;;;5135111;27;20066;-71
2022/07/25 09:50:03;;;;;;;9.32;5.88;;;;;;;;;;5116292;27;20063;-71
2022/07/25 09:52:29;;;;;;;9.10;5.57;;;;;;;;;;5124643;27;20049;-72
2022/07/25 09:54:55;;;;;;;10.25;5.90;;;;;;;;;;5127693;27;20063;-72
2022/07/25 09:57:24;;;;;;;9.73;5.53;;;;;;;;;;5124300;27;20062;-71
2022/07/25 09:59:50;;;;;;;8.18;5.45;;;;;;;;;;5129961;27;20067;-71
2022/07/25 10:02:25;;;;;;;12.02;5.75;;;;;;;;;;5125501;27;20036;-71
2022/07/25 10:04:51;;;;;;;7.57;5.57;;;;;;;;;;5130564;27;20036;-71
2022/07/25 10:07:19;;;;;;;8.27;5.70;;;;;;;;;;5133941;27;20159;-71
2022/07/25 10:09:46;;;;;;;8.50;5.93;;;;;;;;;;5121118;27;20131;-70
2022/07/25 10:12:14;;;;;;;10.70;6.22;;;;;;;;;;5123778;27;20035;-71
2022/07/25 10:14:40;;;;;;;12.25;7.20;;;;;;;;;;5132025;27;20050;-70
2022/07/25 10:17:07;;;;;;;11.93;7.38;;;;;;;;;;5114049;28;20040;-71
2022/07/25 10:19:36;;;;;;;9.88;6.90;;;;;;;;;;5115166;28;20097;-71
2022/07/25 10:22:02;;;;;;;12.10;7.15;;;;;;;;;;5113205;28;20492;-72
2022/07/25 10:24:36;;;;;;;8.88;6.35;;;;;;;;;;5126331;27;20046;-70
2022/07/25 10:27:10;;;;;;;9.70;6.45;;;;;;;;;;5125693;28;20065;-71
2022/07/25 10:29:36;;;;;;;7.32;5.72;;;;;;;;;;5124305;28;20475;-72
2022/07/25 10:32:06;;;;;;;11.63;4.20;;;;;;;;;;5132950;28;20047;-70
2022/07/25 10:34:33;;;;;;;5.03;2.37;;;;;;;;;;5128414;28;20052;-72
2022/07/25 10:37:10;;;;;;;4.72;2.60;;;;;;;;;;5100625;28;20592;-71
2022/07/25 10:39:40;;;;;;;5.15;2.45;;;;;;;;;;5124798;28;20039;-70
2022/07/25 10:42:06;;;;;;;6.97;2.95;;;;;;;;;;5133586;28;20070;-71
2022/07/25 10:44:40;;;;;;;7.28;2.42;;;;;;;;;;5097533;28;20214;-71
2022/07/25 10:47:08;;;;;;;5.93;2.30;;;;;;;;;;5121150;28;20443;-71
2022/07/25 10:49:39;;;;;;;5.40;2.40;;;;;;;;;;5123164;28;20124;-72
2022/07/25 10:52:06;;;;;;;5.85;2.70;;;;;;;;;;5128475;28;20397;-71
2022/07/25 10:54:33;;;;;;;5.90;2.60;;;;;;;;;;5134442;28;20123;-72
2022/07/25 10:56:59;;;;;;;7.60;2.40;;;;;;;;;;5134215;28;20043;-70
2022/07/25 10:59:30;;;;;;;5.70;2.22;;;;;;;;;;5134407;28;20468;-71
2022/07/25 11:01:56;;;;;;;5.40;2.05;;;;;;;;;;5131126;28;20485;-72
2022/07/25 11:04:22;;;;;;;5.15;2.08;;;;;;;;;;5115879;28;20055;-71
2022/07/25 11:06:48;;;;;;;6.65;2.20;;;;;;;;;;5117012;28;20043;-69
2022/07/25 11:09:15;;;;;;;4.85;2.00;;;;;;;;;;5123338;28;20051;-72
2022/07/25 11:11:46;;;;;;;4.93;1.95;;;;;;;;;;5131653;28;20039;-72
2022/07/25 11:14:17;;;;;;;5.50;1.70;;;;;;;;;;5134339;28;20043;-75
2022/07/25 11:16:44;;;;;;;4.82;1.98;;;;;;;;;;5134457;27;20051;-76
2022/07/25 11:19:20;;;;;;;4.75;1.58;;;;;;;;;;5131768;27;20104;-73
2022/07/25 11:21:54;;;;;;;5.05;1.85;;;;;;;;;;5133216;27;20051;-72
2022/07/25 11:24:20;;;;;;;5.55;1.77;;;;;;;;;;5137624;27;20078;-73
2022/07/25 11:26:51;;;;;;;8.60;2.00;;;;;;;;;;5136634;27;20515;-73
2022/07/25 11:29:18;;;;;;;5.78;1.88;;;;;;;;;;5119302;27;20446;-72
2022/07/25 11:31:50;;;;;;;5.47;1.60;;;;;;;;;;5129796;27;20048;-72
2022/07/25 11:34:16;;;;;;;6.35;1.50;;;;;;;;;;5132319;27;20047;-72
2022/07/25 11:36:42;;;;;;;9.40;1.40;;;;;;;;;;5134688;27;20071;-73
2022/07/25 11:39:08;;;;;;;4.63;1.40;;;;;;;;;;5136351;27;20084;-73
2022/07/25 11:41:34;;;;;;;3.67;1.30;;;;;;;;;;5137959;27;20042;-73
2022/07/25 11:44:00;;;;;;;5.55;1.45;;;;;;;;;;5133801;27;20055;-73
2022/07/25 11:46:26;;;;;;;12.73;3.13;;;;;;;;;;5136130;27;20047;-72
2022/07/25 11:49:02;;;;;;;3.58;1.10;;;;;;;;;;5130123;27;20051;-73
2022/07/25 11:51:35;;;;;;;3.88;1.25;;;;;;;;;;5132166;27;20051;-72
2022/07/25 11:54:07;;;;;;;6.63;1.50;;;;;;;;;;5133324;27;20459;-73
2022/07/25 11:56:37;;;;;;;6.75;1.52;;;;;;;;;;5135463;27;20050;-73
2022/07/25 11:59:04;;;;;;;5.80;1.30;;;;;;;;;;5136492;27;20035;-73
2022/07/25 12:01:38;;;;;;;3.63;1.40;;;;;;;;;;5131044;27;20043;-72
2022/07/25 12:04:10;;;;;;;5.38;1.70;;;;;;;;;;5129092;27;20043;-73
2022/07/25 12:06:36;;;;;;;7.97;1.70;;;;;;;;;;5118326;27;20082;-74
2022/07/25 12:09:18;;;;;;;5.88;1.50;;;;;;;;;;5134563;27;20484;-73
2022/07/25 12:11:45;;;;;;;6.53;1.85;;;;;;;;;;5123936;27;20131;-72
2022/07/25 12:14:12;;;;;;;5.25;1.63;;;;;;;;;;5116537;27;20152;-72
2022/07/25 12:16:38;;;;;;;7.88;1.95;;;;;;;;;;5132732;27;20043;-73
2022/07/25 12:19:07;;;;;;;8.77;2.20;;;;;;;;;;5131762;27;20038;-74
2022/07/25 12:21:33;;;;;;;7.93;2.10;;;;;;;;;;5133624;27;20051;-73
2022/07/25 12:24:00;;;;;;;8.18;2.10;;;;;;;;;;5123156;27;20044;-72
2022/07/25 12:26:26;;;;;;;7.28;1.90;;;;;;;;;;5120820;27;20085;-71
2022/07/25 12:28:52;;;;;;;7.05;2.05;;;;;;;;;;5117861;27;20130;-72
2022/07/25 12:31:18;;;;;;;7.60;2.00;;;;;;;;;;5117430;28;20054;-74
2022/07/25 12:33:44;;;;;;;7.55;2.30;;;;;;;;;;5136963;27;20074;-72
2022/07/25 12:36:13;;;;;;;6.95;1.98;;;;;;;;;;5136271;27;20043;-72
2022/07/25 12:38:39;;;;;;;6.55;2.10;;;;;;;;;;5133030;27;20130;-73
2022/07/25 12:41:05;;;;;;;6.70;2.30;;;;;;;;;;5136785;27;20107;-71
2022/07/25 12:43:31;;;;;;;6.22;2.00;;;;;;;;;;5125203;27;20386;-75
2022/07/25 12:45:57;;;;;;;9.60;2.17;;;;;;;;;;5120309;27;20092;-71
2022/07/25 12:48:23;;;;;;;6.35;1.80;;;;;;;;;;5134081;27;20081;-73
2022/07/25 12:50:49;;;;;;;8.80;2.20;;;;;;;;;;5134848;27;20600;-71
2022/07/25 12:53:15;;;;;;;8.68;2.10;;;;;;;;;;5133794;27;20054;-72
2022/07/25 12:55:41;;;;;;;7.93;2.55;;;;;;;;;;5130532;27;20106;-73
2022/07/25 12:58:08;;;;;;;7.78;2.00;;;;;;;;;;5126203;27;20500;-72
2022/07/25 13:00:34;;;;;;;8.65;2.30;;;;;;;;;;5135159;27;20122;-72
2022/07/25 13:03:00;;;;;;;9.15;1.85;;;;;;;;;;5123992;27;20383;-72
2022/07/25 13:05:26;;;;;;;10.75;2.40;;;;;;;;;;5131849;27;20054;-71
2022/07/25 13:07:52;;;;;;;7.43;1.63;;;;;;;;;;5134129;27;20047;-72
2022/07/25 13:10:19;;;;;;;6.78;1.80;;;;;;;;;;5136745;27;20088;-73
2022/07/25 13:12:45;;;;;;;8.07;1.98;;;;;;;;;;5132833;27;20035;-73
2022/07/25 13:15:11;;;;;;;9.57;1.77;;;;;;;;;;5133204;27;20438;-73
2022/07/25 13:17:39;;;;;;;6.93;1.60;;;;;;;;;;5136044;27;20079;-72
2022/07/25 13:20:05;;;;;;;9.35;1.92;;;;;;;;;;5132924;27;20047;-73
2022/07/25 13:22:31;;;;;;;6.38;1.65;;;;;;;;;;5136077;27;20039;-73
2022/07/25 13:24:57;;;;;;;6.28;1.50;;;;;;;;;;5132768;27;20114;-73
2022/07/25 13:27:23;;;;;;;6.97;1.60;;;;;;;;;;5125832;27;20531;-72
2022/07/25 13:29:53;;;;;;;8.27;1.50;;;;;;;;;;5118672;27;20118;-73
2022/07/25 13:32:20;;;;;;;6.40;1.55;;;;;;;;;;5126350;27;20039;-73
2022/07/25 13:34:46;;;;;;;8.15;1.33;;;;;;;;;;5137459;27;20043;-73
2022/07/25 13:37:12;;;;;;;7.38;1.70;;;;;;;;;;5136943;27;20104;-73
2022/07/25 13:39:40;;;;;;;8.93;1.77;;;;;;;;;;5132468;27;20043;-74
2022/07/25 13:42:07;;;;;;;7.50;1.73;;;;;;;;;;5104560;27;20412;-72
2022/07/25 13:44:33;;;;;;;5.93;1.60;;;;;;;;;;5122944;27;20390;-74
2022/07/25 13:46:59;;;;;;;6.93;1.77;;;;;;;;;;5129970;27;20453;-72
2022/07/25 13:49:25;;;;;;;6.20;1.52;;;;;;;;;;5117252;27;20088;-71
2022/07/25 13:51:51;;;;;;;9.75;1.77;;;;;;;;;;5132411;27;20385;-72
2022/07/25 13:54:17;;;;;;;7.53;1.52;;;;;;;;;;5135535;27;20079;-73
2022/07/25 13:56:43;;;;;;;10.50;1.85;;;;;;;;;;5135026;27;20042;-72
2022/07/25 13:59:09;;;;;;;7.15;1.65;;;;;;;;;;5118145;27;20055;-74
2022/07/25 14:01:35;;;;;;;10.43;1.75;;;;;;;;;;5133861;27;20063;-72
2022/07/25 14:04:01;;;;;;;7.72;1.75;;;;;;;;;;5107700;27;20075;-73
2022/07/25 14:06:27;;;;;;;10.15;2.00;;;;;;;;;;5134928;27;20104;-72
2022/07/25 14:08:53;;;;;;;6.63;2.08;;;;;;;;;;5130942;27;20035;-71
2022/07/25 14:11:19;;;;;;;9.65;2.25;;;;;;;;;;5115638;27;20045;-73
2022/07/25 14:13:46;;;;;;;11.73;1.90;;;;;;;;;;5124926;27;20039;-72
2022/07/25 14:16:17;;;;;;;9.82;2.20;;;;;;;;;;5133340;27;20089;-72
2022/07/25 14:18:44;;;;;;;7.95;2.20;;;;;;;;;;5135691;27;20488;-73
2022/07/25 14:21:10;;;;;;;8.05;2.30;;;;;;;;;;5123381;27;20044;-71
2022/07/25 14:23:36;;;;;;;8.88;2.75;;;;;;;;;;5117686;28;20473;-71
2022/07/25 14:26:02;;;;;;;7.75;2.67;;;;;;;;;;5116939;27;20050;-73
2022/07/25 14:28:28;;;;;;;6.72;2.58;;;;;;;;;;5130324;28;20507;-72